createdAt,value
2023-05-18T00:01:25.535Z,101308.97
2023-05-18T00:03:54.217Z,101308.84
2023-05-18T00:06:22.486Z,101310.44
2023-05-18T00:08:49.260Z,101311.84
2023-05-18T00:11:16.223Z,101304.44
2023-05-18T00:13:43.288Z,101297.53
2023-05-18T00:16:12.017Z,101297.66
2023-05-18T00:18:38.727Z,101305.00
2023-05-18T00:21:06.374Z,101293.72
2023-05-18T00:23:33.246Z,101301.03
2023-05-18T00:26:01.430Z,101294.53
2023-05-18T00:28:29.390Z,101292.09
2023-05-18T00:30:56.872Z,101294.00
2023-05-18T00:33:23.734Z,101289.97
2023-05-18T00:35:50.602Z,101294.69
2023-05-18T00:38:17.916Z,101288.38
2023-05-18T00:40:44.773Z,101294.06
2023-05-18T00:43:12.483Z,101290.16
2023-05-18T00:45:39.957Z,101289.66
2023-05-18T00:48:07.312Z,101290.03
2023-05-18T00:50:34.908Z,101288.69
2023-05-18T00:53:01.795Z,101282.66
2023-05-18T00:55:29.174Z,101295.56
2023-05-18T00:58:02.391Z,101290.50
2023-05-18T01:00:29.605Z,101294.06
2023-05-18T01:02:57.330Z,101289.34
2023-05-18T01:05:24.341Z,101290.25
2023-05-18T01:07:51.304Z,101288.91
2023-05-18T01:10:20.644Z,101289.28
2023-05-18T01:12:57.297Z,101288.75
2023-05-18T01:15:34.832Z,101286.75
2023-05-18T01:18:05.349Z,101284.47
2023-05-18T01:20:45.975Z,101288.19
2023-05-18T01:23:45.580Z,101280.13
2023-05-18T01:26:17.097Z,101285.69
2023-05-18T01:28:46.768Z,101291.53
2023-05-18T01:31:16.264Z,101287.44
2023-05-18T01:33:44.470Z,101286.25
2023-05-18T01:36:11.575Z,101286.06
2023-05-18T01:38:41.050Z,101282.78
2023-05-18T01:41:18.156Z,101284.81
2023-05-18T01:44:18.525Z,101291.75
2023-05-18T01:46:54.735Z,101282.50
2023-05-18T01:49:24.511Z,101280.63
2023-05-18T01:51:53.401Z,101286.47
2023-05-18T01:54:22.775Z,101276.94
2023-05-18T01:56:52.097Z,101273.53
2023-05-18T01:59:19.076Z,101278.53
2023-05-18T02:01:45.893Z,101276.50
2023-05-18T02:04:12.786Z,101281.28
2023-05-18T02:06:39.758Z,101274.81
2023-05-18T02:09:09.009Z,101273.81
2023-05-18T02:11:35.893Z,101270.38
2023-05-18T02:14:02.944Z,101278.44
2023-05-18T02:16:29.787Z,101273.34
2023-05-18T02:18:58.113Z,101272.75
2023-05-18T02:21:25.968Z,101277.53
2023-05-18T02:23:52.700Z,101280.81
2023-05-18T02:26:19.474Z,101274.25
2023-05-18T02:28:53.032Z,101279.88
2023-05-18T02:31:19.918Z,101275.91
2023-05-18T02:33:46.693Z,101273.34
2023-05-18T02:36:14.386Z,101276.50
2023-05-18T02:38:43.841Z,101268.88
2023-05-18T02:41:12.082Z,101271.56
2023-05-18T02:43:39.019Z,101271.56
2023-05-18T02:46:07.557Z,101271.47
2023-05-18T02:48:34.525Z,101270.44
2023-05-18T02:51:01.263Z,101268.06
2023-05-18T02:53:27.982Z,101269.75
2023-05-18T02:56:03.287Z,101272.13
2023-05-18T02:58:39.134Z,101262.69
2023-05-18T03:01:39.986Z,101262.84
2023-05-18T03:04:07.347Z,101265.72
2023-05-18T03:06:38.340Z,101262.13
2023-05-18T03:09:05.200Z,101266.63
2023-05-18T03:11:36.687Z,101263.75
2023-05-18T03:14:03.704Z,101271.47
2023-05-18T03:16:30.533Z,101265.38
2023-05-18T03:19:02.297Z,101264.06
2023-05-18T03:21:36.110Z,101262.66
2023-05-18T03:24:03.594Z,101265.72
2023-05-18T03:26:32.067Z,101263.28
2023-05-18T03:28:59.556Z,101270.25
2023-05-18T03:31:27.127Z,101270.41
2023-05-18T03:33:56.257Z,101267.91
2023-05-18T03:36:25.336Z,101272.97
2023-05-18T03:38:52.833Z,101274.97
2023-05-18T03:41:19.973Z,101283.09
2023-05-18T03:43:46.729Z,101283.03
2023-05-18T03:46:13.697Z,101285.13
2023-05-18T03:48:40.685Z,101287.09
2023-05-18T03:51:07.763Z,101289.31
2023-05-18T03:53:36.237Z,101294.28
2023-05-18T03:56:03.104Z,101293.50
2023-05-18T03:58:30.128Z,101290.81
2023-05-18T04:00:58.938Z,101295.13
2023-05-18T04:03:27.090Z,101295.06
2023-05-18T04:05:55.666Z,101299.16
2023-05-18T04:08:25.461Z,101302.00
2023-05-18T04:10:52.553Z,101298.63
2023-05-18T04:13:19.256Z,101303.34
2023-05-18T04:15:46.001Z,101297.97
2023-05-18T04:18:13.683Z,101297.22
2023-05-18T04:20:42.609Z,101297.41
2023-05-18T04:23:10.111Z,101297.59
2023-05-18T04:25:39.300Z,101302.44
2023-05-18T04:28:07.272Z,101304.69
2023-05-18T04:30:35.405Z,101308.22
2023-05-18T04:33:04.116Z,101304.41
2023-05-18T04:35:31.982Z,101311.06
2023-05-18T04:37:58.945Z,101317.09
2023-05-18T04:40:25.897Z,101320.94
2023-05-18T04:42:52.950Z,101317.09
2023-05-18T04:45:26.101Z,101325.50
2023-05-18T04:47:54.760Z,101327.38
2023-05-18T04:50:26.251Z,101310.81
2023-05-18T04:52:53.997Z,101316.28
2023-05-18T04:55:27.491Z,101317.50
2023-05-18T04:58:03.107Z,101319.03
2023-05-18T05:00:30.995Z,101329.69
2023-05-18T05:02:59.355Z,101319.75
2023-05-18T05:05:28.567Z,101325.19
2023-05-18T05:07:57.492Z,101324.53
2023-05-18T05:10:25.508Z,101330.75
2023-05-18T05:12:52.677Z,101324.84
2023-05-18T05:15:20.398Z,101318.47
2023-05-18T05:17:49.888Z,101325.25
2023-05-18T05:20:17.237Z,101329.69
2023-05-18T05:22:44.119Z,101338.00
2023-05-18T05:25:13.129Z,101338.44
2023-05-18T05:27:39.824Z,101332.22
2023-05-18T05:30:07.430Z,101331.81
2023-05-18T05:32:36.716Z,101330.63
2023-05-18T05:35:05.362Z,101326.13
2023-05-18T05:37:32.675Z,101324.75
2023-05-18T05:39:59.507Z,101331.84
2023-05-18T05:42:27.375Z,101331.06
2023-05-18T05:44:54.133Z,101326.09
2023-05-18T05:47:21.537Z,101331.91
2023-05-18T05:49:49.379Z,101345.53
2023-05-18T05:52:16.692Z,101337.91
2023-05-18T05:54:43.549Z,101339.00
2023-05-18T05:57:11.435Z,101338.66
2023-05-18T05:59:38.394Z,101341.59
2023-05-18T06:02:05.630Z,101345.72
2023-05-18T06:04:33.103Z,101336.13
2023-05-18T06:07:00.823Z,101349.19
2023-05-18T06:09:28.932Z,101335.69
2023-05-18T06:11:56.595Z,101344.41
2023-05-18T06:14:25.013Z,101341.31
2023-05-18T06:16:53.435Z,101335.69
2023-05-18T06:19:20.388Z,101340.34
2023-05-18T06:21:47.244Z,101348.41
2023-05-18T06:24:14.386Z,101348.19
2023-05-18T06:26:53.646Z,101348.59
2023-05-18T06:29:36.428Z,101348.81
2023-05-18T06:32:13.597Z,101350.28
2023-05-18T06:34:45.719Z,101350.81
2023-05-18T06:37:12.994Z,101353.38
2023-05-18T06:39:40.308Z,101364.56
2023-05-18T06:42:07.551Z,101351.25
2023-05-18T06:44:35.870Z,101359.00
2023-05-18T06:47:07.980Z,101358.66
2023-05-18T06:49:34.784Z,101361.06
2023-05-18T06:52:01.475Z,101355.66
2023-05-18T06:54:32.089Z,101359.88
2023-05-18T06:56:59.883Z,101353.91
2023-05-18T06:59:26.654Z,101351.16
2023-05-18T07:01:54.181Z,101358.69
2023-05-18T07:04:21.303Z,101354.91
2023-05-18T07:06:48.796Z,101364.34
2023-05-18T07:09:15.729Z,101363.13
2023-05-18T07:11:42.685Z,101351.44
2023-05-18T07:14:09.864Z,101358.50
2023-05-18T07:16:37.065Z,101355.38
2023-05-18T07:19:04.954Z,101352.47
2023-05-18T07:21:31.924Z,101347.03
2023-05-18T07:23:58.986Z,101349.69
2023-05-18T07:26:26.154Z,101345.31
2023-05-18T07:28:53.019Z,101352.78
2023-05-18T07:31:21.757Z,101337.69
2023-05-18T07:33:49.824Z,101344.28
2023-05-18T07:36:16.914Z,101343.84
2023-05-18T07:38:44.114Z,101337.00
2023-05-18T07:41:11.006Z,101339.84
2023-05-18T07:43:38.001Z,101340.41
2023-05-18T07:46:04.810Z,101339.72
2023-05-18T07:48:31.576Z,101334.28
2023-05-18T07:50:58.440Z,101342.22
2023-05-18T07:53:25.239Z,101338.69
2023-05-18T07:55:53.076Z,101348.19
2023-05-18T07:58:19.955Z,101336.81
2023-05-18T08:00:46.803Z,101345.13
2023-05-18T08:03:13.687Z,101342.25
2023-05-18T08:05:40.753Z,101337.44
2023-05-18T08:08:08.180Z,101343.19
2023-05-18T08:10:35.025Z,101344.16
2023-05-18T08:13:01.887Z,101335.09
2023-05-18T08:15:29.189Z,101341.09
2023-05-18T08:17:57.102Z,101337.19
2023-05-18T08:20:26.185Z,101335.34
2023-05-18T08:22:52.962Z,101322.84
2023-05-18T08:25:19.870Z,101327.00
2023-05-18T08:27:46.651Z,101309.88
2023-05-18T08:30:13.943Z,101315.31
2023-05-18T08:32:40.943Z,101325.72
2023-05-18T08:35:09.170Z,101321.53
2023-05-18T08:37:37.251Z,101320.28
2023-05-18T08:40:07.987Z,101320.00
2023-05-18T08:42:49.817Z,101311.97
2023-05-18T08:45:41.600Z,101315.25
2023-05-18T08:48:11.497Z,101319.75
2023-05-18T08:50:41.762Z,101316.75
2023-05-18T08:53:10.673Z,101309.97
2023-05-18T08:55:37.928Z,101308.31
2023-05-18T08:58:09.182Z,101307.09
2023-05-18T09:00:36.925Z,101312.53
2023-05-18T09:03:05.311Z,101303.16
2023-05-18T09:05:32.549Z,101296.72
2023-05-18T09:08:00.536Z,101306.31
2023-05-18T09:10:28.048Z,101309.44
2023-05-18T09:12:56.202Z,101307.41
2023-05-18T09:15:25.289Z,101306.56
2023-05-18T09:17:52.493Z,101293.53
2023-05-18T09:20:19.953Z,101301.00
2023-05-18T09:22:49.374Z,101298.56
2023-05-18T09:25:17.662Z,101298.38
2023-05-18T09:27:44.457Z,101291.00
2023-05-18T09:30:11.973Z,101289.72
2023-05-18T09:32:39.164Z,101297.31
2023-05-18T09:35:07.543Z,101293.81
2023-05-18T09:37:35.286Z,101292.69
2023-05-18T09:40:05.345Z,101287.28
2023-05-18T09:42:44.095Z,101283.75
2023-05-18T09:45:25.586Z,101275.31
2023-05-18T09:47:53.628Z,101273.41
2023-05-18T09:50:21.244Z,101272.84
2023-05-18T09:52:49.314Z,101275.28
2023-05-18T09:55:17.525Z,101281.53
2023-05-18T09:57:46.425Z,101286.16
2023-05-18T10:00:19.165Z,101279.13
2023-05-18T10:02:52.640Z,101276.69
2023-05-18T10:05:20.573Z,101279.16
2023-05-18T10:07:48.441Z,101268.00
2023-05-18T10:10:19.541Z,101258.75
2023-05-18T10:12:47.980Z,101257.91
2023-05-18T10:15:16.329Z,101264.97
2023-05-18T10:17:45.223Z,101257.91
2023-05-18T10:20:15.893Z,101262.72
2023-05-18T10:22:46.017Z,101254.63
2023-05-18T10:25:22.619Z,101264.97
2023-05-18T10:27:55.493Z,101259.53
2023-05-18T10:30:22.982Z,101258.19
2023-05-18T10:32:51.351Z,101262.53
2023-05-18T10:35:18.781Z,101262.81
2023-05-18T10:37:50.122Z,101248.66
2023-05-18T10:40:17.649Z,101245.38
2023-05-18T10:42:46.306Z,101244.28
2023-05-18T10:45:15.596Z,101245.66
2023-05-18T10:47:44.171Z,101245.66
2023-05-18T10:50:11.677Z,101251.94
2023-05-18T10:52:38.442Z,101246.72
2023-05-18T10:55:06.844Z,101255.69
2023-05-18T10:57:40.771Z,101247.47
2023-05-18T11:00:09.394Z,101245.34
2023-05-18T11:02:42.201Z,101241.78
2023-05-18T11:05:12.437Z,101235.50
2023-05-18T11:07:39.261Z,101231.19
2023-05-18T11:10:12.415Z,101234.47
2023-05-18T11:12:40.784Z,101232.00
2023-05-18T11:15:08.260Z,101238.56
2023-05-18T11:17:34.938Z,101224.16
2023-05-18T11:20:07.871Z,101230.06
2023-05-18T11:22:56.756Z,101223.28
2023-05-18T11:25:26.156Z,101222.75
2023-05-18T11:27:53.880Z,101212.97
2023-05-18T11:30:44.961Z,101226.31
2023-05-18T11:33:14.485Z,101232.00
2023-05-18T11:36:04.553Z,101217.31
2023-05-18T11:38:55.147Z,101226.28
2023-05-18T11:41:35.254Z,101224.34
2023-05-18T11:44:16.837Z,101226.53
2023-05-18T11:46:56.076Z,101218.13
2023-05-18T11:49:28.429Z,101224.91
2023-05-18T11:52:18.665Z,101223.75
2023-05-18T11:54:56.398Z,101231.38
2023-05-18T11:57:34.807Z,101229.19
2023-05-18T12:00:10.228Z,101220.78
2023-05-18T12:02:43.827Z,101194.72
2023-05-18T12:05:10.793Z,101212.69
2023-05-18T12:07:39.235Z,101212.97
2023-05-18T12:10:10.955Z,101214.59
2023-05-18T12:12:38.140Z,101223.56
2023-05-18T12:15:06.863Z,101222.47
2023-05-18T12:17:43.106Z,101211.56
2023-05-18T12:20:14.568Z,101211.53
2023-05-18T12:22:45.201Z,101209.97
2023-05-18T12:25:12.039Z,101218.69
2023-05-18T12:27:40.681Z,101213.78
2023-05-18T12:30:14.602Z,101216.50
2023-05-18T12:32:57.641Z,101214.03
2023-05-18T12:35:25.802Z,101196.38
2023-05-18T12:37:55.925Z,101200.50
2023-05-18T12:40:23.256Z,101195.06
2023-05-18T12:42:56.850Z,101199.13
2023-05-18T12:45:27.801Z,101196.94
2023-05-18T12:47:55.508Z,101183.63
2023-05-18T12:50:27.664Z,101179.28
2023-05-18T12:52:56.153Z,101195.31
2023-05-18T12:55:25.004Z,101181.72
2023-05-18T12:58:15.864Z,101174.13
2023-05-18T13:00:47.805Z,101178.44
2023-05-18T13:03:16.872Z,101169.50
2023-05-18T13:05:46.119Z,101168.13
2023-05-18T13:08:19.112Z,101167.56
2023-05-18T13:10:46.247Z,101166.72
2023-05-18T13:13:16.660Z,101163.19
2023-05-18T13:15:44.097Z,101158.31
2023-05-18T13:18:11.779Z,101166.22
2023-05-18T13:20:45.133Z,101157.50
2023-05-18T13:23:14.017Z,101145.50
2023-05-18T13:25:41.286Z,101150.13
2023-05-18T13:28:10.560Z,101147.34
2023-05-18T13:30:38.298Z,101141.69
2023-05-18T13:33:08.159Z,101145.25
2023-05-18T13:35:40.301Z,101142.75
2023-05-18T13:38:06.844Z,101142.50
2023-05-18T13:40:33.455Z,101145.78
2023-05-18T13:43:00.126Z,101138.16
2023-05-18T13:45:26.652Z,101138.66
2023-05-18T13:47:56.900Z,101139.97
2023-05-18T13:50:23.908Z,101132.81
2023-05-18T13:52:50.586Z,101126.16
2023-05-18T13:55:17.138Z,101140.25
2023-05-18T13:57:44.971Z,101134.16
2023-05-18T14:00:13.457Z,101129.91
2023-05-18T14:02:41.540Z,101131.25
2023-05-18T14:05:09.665Z,101129.53
2023-05-18T14:07:41.488Z,101121.44
2023-05-18T14:10:09.965Z,101125.34
2023-05-18T14:12:37.236Z,101126.84
2023-05-18T14:15:05.673Z,101123.53
2023-05-18T14:17:35.521Z,101109.94
2023-05-18T14:20:02.721Z,101119.00
2023-05-18T14:22:30.584Z,101116.06
2023-05-18T14:24:57.590Z,101099.50
2023-05-18T14:27:24.182Z,101103.97
2023-05-18T14:29:51.132Z,101100.53
2023-05-18T14:32:20.686Z,101102.06
2023-05-18T14:34:51.561Z,101105.91
2023-05-18T14:37:18.866Z,101113.94
2023-05-18T14:39:45.726Z,101111.22
2023-05-18T14:42:12.251Z,101105.47
2023-05-18T14:44:38.810Z,101106.88
2023-05-18T14:47:05.728Z,101104.72
2023-05-18T14:49:32.328Z,101092.75
2023-05-18T14:51:58.931Z,101093.50
2023-05-18T14:54:25.678Z,101091.69
2023-05-18T14:56:52.342Z,101100.22
2023-05-18T14:59:18.970Z,101093.13
2023-05-18T15:01:45.694Z,101090.00
2023-05-18T15:04:14.570Z,101082.88
2023-05-18T15:06:41.439Z,101094.31
2023-05-18T15:09:08.362Z,101084.41
2023-05-18T15:11:34.968Z,101089.34
2023-05-18T15:14:01.540Z,101094.53
2023-05-18T15:16:28.249Z,101098.03
2023-05-18T15:18:55.036Z,101094.00
2023-05-18T15:21:21.775Z,101097.16
2023-05-18T15:23:48.311Z,101088.19
2023-05-18T15:26:14.957Z,101078.97
2023-05-18T15:28:43.369Z,101091.63
2023-05-18T15:31:09.909Z,101085.84
2023-05-18T15:33:41.819Z,101088.94
2023-05-18T15:36:08.852Z,101078.59
2023-05-18T15:38:35.751Z,101072.41
2023-05-18T15:41:02.343Z,101070.06
2023-05-18T15:43:30.412Z,101068.28
2023-05-18T15:45:58.108Z,101073.16
2023-05-18T15:48:24.794Z,101064.16
2023-05-18T15:50:51.375Z,101056.69
2023-05-18T15:53:17.929Z,101060.69
2023-05-18T15:55:44.486Z,101065.38
2023-05-18T15:58:12.940Z,101057.84
2023-05-18T16:00:39.520Z,101061.16
2023-05-18T16:03:06.247Z,101055.47
2023-05-18T16:05:32.915Z,101055.03
2023-05-18T16:07:59.729Z,101050.81
2023-05-18T16:10:26.238Z,101053.25
2023-05-18T16:12:52.772Z,101058.09
2023-05-18T16:15:24.154Z,101053.72
2023-05-18T16:17:50.851Z,101050.72
2023-05-18T16:20:18.459Z,101065.34
2023-05-18T16:22:46.718Z,101064.75
2023-05-18T16:25:13.351Z,101064.09
2023-05-18T16:27:39.918Z,101055.31
2023-05-18T16:30:07.253Z,101055.66
2023-05-18T16:32:33.853Z,101070.75
2023-05-18T16:35:01.027Z,101060.69
2023-05-18T16:37:27.977Z,101058.03
2023-05-18T16:39:54.587Z,101053.84
2023-05-18T16:42:22.775Z,101068.50
2023-05-18T16:44:49.355Z,101076.31
2023-05-18T16:47:16.058Z,101076.53
2023-05-18T16:49:45.266Z,101073.72
2023-05-18T16:52:11.861Z,101073.25
2023-05-18T16:54:38.426Z,101070.00
2023-05-18T16:57:05.216Z,101075.69
2023-05-18T16:59:34.221Z,101078.72
2023-05-18T17:02:01.431Z,101079.66
2023-05-18T17:04:28.119Z,101071.50
2023-05-18T17:06:54.771Z,101075.84
2023-05-18T17:09:21.310Z,101069.19
2023-05-18T17:11:48.381Z,101071.34
2023-05-18T17:14:15.084Z,101069.13
2023-05-18T17:16:41.701Z,101083.66
2023-05-18T17:19:08.364Z,101073.84
2023-05-18T17:21:35.058Z,101072.28
2023-05-18T17:24:01.628Z,101070.13
2023-05-18T17:26:30.606Z,101081.53
2023-05-18T17:28:57.374Z,101080.56
2023-05-18T17:31:24.077Z,101073.75
2023-05-18T17:33:50.841Z,101076.47
2023-05-18T17:36:18.309Z,101073.81
2023-05-18T17:38:45.163Z,101067.84
2023-05-18T17:41:11.943Z,101067.78
2023-05-18T17:43:38.670Z,101065.91
2023-05-18T17:46:05.391Z,101065.88
2023-05-18T17:48:31.998Z,101071.09
2023-05-18T17:50:58.807Z,101071.03
2023-05-18T17:53:25.307Z,101065.00
2023-05-18T17:55:52.649Z,101067.78
2023-05-18T17:58:19.692Z,101070.81
2023-05-18T18:00:46.371Z,101081.84
2023-05-18T18:03:13.317Z,101075.16
2023-05-18T18:05:40.242Z,101078.44
2023-05-18T18:08:07.122Z,101081.44
2023-05-18T18:10:34.682Z,101083.59
2023-05-18T18:13:03.315Z,101077.09
2023-05-18T18:15:30.096Z,101079.81
2023-05-18T18:18:00.356Z,101076.00
2023-05-18T18:20:27.260Z,101082.78
2023-05-18T18:22:53.980Z,101081.75
2023-05-18T18:25:20.741Z,101079.28
2023-05-18T18:27:47.448Z,101077.16
2023-05-18T18:30:14.773Z,101089.72
2023-05-18T18:32:41.537Z,101090.25
2023-05-18T18:35:09.029Z,101088.09
2023-05-18T18:37:36.132Z,101090.56
2023-05-18T18:40:03.012Z,101093.53
2023-05-18T18:42:30.913Z,101097.09
2023-05-18T18:44:57.696Z,101094.63
2023-05-18T18:47:25.023Z,101100.09
2023-05-18T18:49:51.810Z,101101.22
2023-05-18T18:52:18.555Z,101103.09
2023-05-18T18:54:45.366Z,101096.31
2023-05-18T18:57:12.329Z,101105.59
2023-05-18T18:59:39.373Z,101098.50
2023-05-18T19:02:06.361Z,101105.03
2023-05-18T19:04:33.253Z,101108.03
2023-05-18T19:07:02.918Z,101109.94
2023-05-18T19:09:32.676Z,101104.22
2023-05-18T19:11:59.456Z,101112.38
2023-05-18T19:14:26.474Z,101111.03
2023-05-18T19:16:53.686Z,101119.75
2023-05-18T19:19:20.481Z,101118.66
2023-05-18T19:21:47.200Z,101119.72
2023-05-18T19:24:13.980Z,101123.25
2023-05-18T19:26:40.722Z,101127.59
2023-05-18T19:29:07.389Z,101125.13
2023-05-18T19:31:35.756Z,101125.97
2023-05-18T19:34:02.770Z,101129.25
2023-05-18T19:36:29.517Z,101124.63
2023-05-18T19:38:56.281Z,101138.69
2023-05-18T19:41:24.622Z,101133.81
2023-05-18T19:43:51.692Z,101137.03
2023-05-18T19:46:19.158Z,101134.88
2023-05-18T19:48:46.652Z,101137.56
2023-05-18T19:51:13.329Z,101140.31
2023-05-18T19:53:40.279Z,101138.13
2023-05-18T19:56:06.977Z,101136.75
2023-05-18T19:58:33.727Z,101150.31
2023-05-18T20:01:00.622Z,101154.13
2023-05-18T20:03:27.623Z,101156.84
2023-05-18T20:05:56.048Z,101153.25
2023-05-18T20:08:22.888Z,101153.25
2023-05-18T20:10:49.822Z,101151.34
2023-05-18T20:13:16.632Z,101161.34
2023-05-18T20:15:43.756Z,101156.78
2023-05-18T20:18:10.751Z,101157.31
2023-05-18T20:20:37.645Z,101167.06
2023-05-18T20:23:06.737Z,101166.22
2023-05-18T20:25:35.191Z,101163.81
2023-05-18T20:28:03.531Z,101160.28
2023-05-18T20:30:30.706Z,101164.84
2023-05-18T20:33:03.656Z,101163.19
2023-05-18T20:35:30.564Z,101168.09
2023-05-18T20:37:59.649Z,101175.59
2023-05-18T20:40:27.803Z,101165.56
2023-05-18T20:42:54.542Z,101166.63
2023-05-18T20:45:22.706Z,101168.81
2023-05-18T20:47:52.867Z,101169.78
2023-05-18T20:50:21.121Z,101171.19
2023-05-18T20:52:47.963Z,101175.00
2023-05-18T20:55:14.914Z,101164.63
2023-05-18T20:57:46.131Z,101169.19
2023-05-18T21:00:13.300Z,101171.41
2023-05-18T21:02:41.574Z,101172.22
2023-05-18T21:05:08.853Z,101172.72
2023-05-18T21:07:37.827Z,101168.06
2023-05-18T21:10:05.101Z,101175.03
2023-05-18T21:12:32.618Z,101174.00
2023-05-18T21:14:59.385Z,101177.47
2023-05-18T21:17:26.280Z,101170.31
2023-05-18T21:19:53.150Z,101175.47
2023-05-18T21:22:19.962Z,101166.78
2023-05-18T21:24:46.624Z,101172.63
2023-05-18T21:27:13.444Z,101167.84
2023-05-18T21:29:40.217Z,101173.75
2023-05-18T21:32:07.172Z,101165.59
2023-05-18T21:34:33.964Z,101175.34
2023-05-18T21:37:01.193Z,101176.72
2023-05-18T21:39:27.934Z,101168.66
2023-05-18T21:41:54.779Z,101166.41
2023-05-18T21:44:21.473Z,101177.84
2023-05-18T21:46:48.354Z,101173.88
2023-05-18T21:49:15.032Z,101173.69
2023-05-18T21:51:41.678Z,101168.81
2023-05-18T21:54:08.457Z,101174.91
2023-05-18T21:56:36.696Z,101173.53
2023-05-18T21:59:03.512Z,101173.28
2023-05-18T22:01:30.393Z,101174.69
2023-05-18T22:03:57.220Z,101173.84
2023-05-18T22:06:24.050Z,101167.41
2023-05-18T22:08:51.481Z,101168.38
2023-05-18T22:11:18.289Z,101182.28
2023-05-18T22:13:44.971Z,101173.03
2023-05-18T22:16:11.959Z,101177.06
2023-05-18T22:18:38.798Z,101166.94
2023-05-18T22:21:05.705Z,101171.28
2023-05-18T22:23:32.372Z,101171.03
2023-05-18T22:25:59.052Z,101167.34
2023-05-18T22:28:25.932Z,101171.00
2023-05-18T22:30:52.773Z,101170.66
2023-05-18T22:33:20.948Z,101168.72
2023-05-18T22:35:50.662Z,101162.75
2023-05-18T22:38:17.902Z,101161.78
2023-05-18T22:40:45.411Z,101167.41
2023-05-18T22:43:12.336Z,101170.84
2023-05-18T22:45:39.165Z,101169.06
2023-05-18T22:48:06.315Z,101172.78
2023-05-18T22:50:33.407Z,101168.75
2023-05-18T22:53:02.301Z,101169.63
2023-05-18T22:55:29.110Z,101160.81
2023-05-18T22:57:55.805Z,101162.50
2023-05-18T23:00:22.882Z,101168.53
2023-05-18T23:02:49.674Z,101169.31
2023-05-18T23:05:17.169Z,101167.22
2023-05-18T23:07:44.126Z,101166.03
2023-05-18T23:10:12.164Z,101168.81
2023-05-18T23:12:39.578Z,101169.63
2023-05-18T23:15:07.413Z,101170.44
2023-05-18T23:17:54.808Z,101162.75
2023-05-18T23:20:22.864Z,101166.09
2023-05-18T23:22:49.590Z,101171.38
2023-05-18T23:25:16.522Z,101166.97
2023-05-18T23:27:44.820Z,101160.50
2023-05-18T23:30:11.825Z,101163.38
2023-05-18T23:32:39.193Z,101163.78
2023-05-18T23:35:06.590Z,101162.75
2023-05-18T23:37:35.081Z,101164.59
2023-05-18T23:40:04.659Z,101163.47
2023-05-18T23:42:33.451Z,101164.72
2023-05-18T23:45:00.735Z,101160.22
2023-05-18T23:47:27.702Z,101157.38
2023-05-18T23:49:54.893Z,101157.31
2023-05-18T23:52:24.873Z,101153.09
2023-05-18T23:54:55.501Z,101157.88
2023-05-18T23:57:25.465Z,101161.50
2023-05-18T23:59:52.472Z,101152.69
